createdAt,value
2023-04-30T00:01:43.256Z,19.17
2023-04-30T00:04:10.614Z,21.63
2023-04-30T00:06:37.775Z,19.20
2023-04-30T00:09:04.967Z,19.30
2023-04-30T00:11:32.111Z,25.80
2023-04-30T00:13:59.381Z,20.10
2023-04-30T00:16:26.905Z,23.67
2023-04-30T00:18:54.066Z,20.55
2023-04-30T00:21:22.759Z,19.42
2023-04-30T00:23:50.646Z,22.45
2023-04-30T00:26:17.784Z,22.55
2023-04-30T00:28:48.494Z,20.95
2023-04-30T00:31:15.790Z,22.40
2023-04-30T00:33:42.932Z,24.90
2023-04-30T00:36:10.489Z,24.42
2023-04-30T00:38:37.736Z,22.10
2023-04-30T00:41:05.294Z,24.75
2023-04-30T00:43:34.253Z,26.15
2023-04-30T00:46:03.795Z,22.90
2023-04-30T00:48:31.141Z,25.90
2023-04-30T00:50:58.368Z,24.20
2023-04-30T00:53:26.403Z,24.17
2023-04-30T00:55:55.856Z,23.42
2023-04-30T00:58:23.255Z,23.95
2023-04-30T01:00:51.180Z,26.42
2023-04-30T01:03:18.671Z,25.85
2023-04-30T01:05:46.061Z,24.13
2023-04-30T01:08:13.233Z,23.77
2023-04-30T01:11:11.119Z,23.08
2023-04-30T01:14:04.566Z,26.58
2023-04-30T01:17:28.608Z,24.58
2023-04-30T01:19:56.526Z,22.85
2023-04-30T01:22:26.742Z,24.00
2023-04-30T01:25:40.010Z,24.35
2023-04-30T01:28:16.846Z,26.38
2023-04-30T01:30:45.144Z,27.42
2023-04-30T01:33:13.777Z,27.88
2023-04-30T01:36:40.556Z,27.52
2023-04-30T01:39:52.053Z,26.67
2023-04-30T01:42:43.501Z,25.75
2023-04-30T01:45:47.987Z,25.23
2023-04-30T01:48:43.745Z,27.80
2023-04-30T01:51:29.162Z,29.13
2023-04-30T01:54:03.557Z,31.02
2023-04-30T01:59:10.160Z,29.88
2023-04-30T02:04:05.307Z,26.10
2023-04-30T02:06:33.457Z,37.22
2023-04-30T02:09:05.446Z,30.80
2023-04-30T02:11:32.831Z,25.52
2023-04-30T02:13:59.986Z,29.25
2023-04-30T02:16:27.289Z,26.27
2023-04-30T02:18:54.527Z,25.63
2023-04-30T02:21:21.889Z,26.92
2023-04-30T02:23:49.666Z,27.90
2023-04-30T02:26:16.921Z,25.00
2023-04-30T02:28:44.081Z,26.33
2023-04-30T02:31:12.088Z,29.83
2023-04-30T02:33:39.267Z,27.42
2023-04-30T02:36:06.694Z,25.75
2023-04-30T02:38:33.903Z,25.67
2023-04-30T02:41:02.257Z,26.52
2023-04-30T02:45:56.756Z,28.10
2023-04-30T02:48:24.149Z,26.67
2023-04-30T02:50:51.311Z,28.38
2023-04-30T02:53:18.488Z,28.23
2023-04-30T02:55:46.139Z,28.45
2023-04-30T02:58:13.599Z,27.85
2023-04-30T03:00:40.933Z,28.67
2023-04-30T03:03:08.347Z,26.83
2023-04-30T03:05:35.667Z,29.45
2023-04-30T03:08:03.347Z,28.00
2023-04-30T03:10:30.618Z,30.67
2023-04-30T03:12:57.895Z,30.50
2023-04-30T03:15:25.031Z,32.95
2023-04-30T03:17:52.447Z,31.88
2023-04-30T03:20:19.950Z,35.33
2023-04-30T03:22:47.092Z,33.25
2023-04-30T03:25:14.553Z,28.73
2023-04-30T03:27:41.925Z,29.73
2023-04-30T03:30:09.711Z,29.92
2023-04-30T03:32:39.976Z,29.08
2023-04-30T03:35:08.649Z,29.98
2023-04-30T03:37:35.808Z,29.00
2023-04-30T03:40:03.583Z,30.17
2023-04-30T03:42:31.170Z,29.13
2023-04-30T03:44:58.438Z,31.33
2023-04-30T03:47:25.711Z,34.95
2023-04-30T03:49:55.423Z,35.72
2023-04-30T03:52:23.555Z,36.63
2023-04-30T03:54:51.106Z,34.85
2023-04-30T03:57:19.748Z,33.65
2023-04-30T03:59:47.777Z,37.95
2023-04-30T04:02:16.029Z,35.72
2023-04-30T04:04:43.967Z,34.08
2023-04-30T04:07:12.901Z,33.53
2023-04-30T04:09:40.549Z,33.88
2023-04-30T04:12:07.871Z,34.67
2023-04-30T04:14:35.812Z,31.30
2023-04-30T04:17:05.714Z,36.53
2023-04-30T04:19:33.347Z,34.80
2023-04-30T04:22:00.902Z,32.35
2023-04-30T04:24:28.242Z,33.30
2023-04-30T04:26:56.036Z,33.33
2023-04-30T04:29:23.419Z,32.95
2023-04-30T04:31:51.165Z,33.10
2023-04-30T04:34:20.035Z,38.22
2023-04-30T04:36:47.651Z,37.88
2023-04-30T04:39:15.243Z,45.40
2023-04-30T04:41:42.577Z,54.00
2023-04-30T04:44:09.876Z,66.05
2023-04-30T04:46:42.299Z,80.63
2023-04-30T04:49:09.952Z,94.28
2023-04-30T04:51:37.109Z,100.72
2023-04-30T04:54:04.531Z,110.47
2023-04-30T04:56:31.683Z,109.35
2023-04-30T04:58:59.327Z,105.60
2023-04-30T05:01:26.885Z,95.32
2023-04-30T05:06:22.796Z,71.00
2023-04-30T05:08:50.403Z,62.15
2023-04-30T05:11:17.600Z,46.40
2023-04-30T05:13:44.976Z,41.22
2023-04-30T05:16:12.231Z,36.20
2023-04-30T05:18:39.463Z,39.05
2023-04-30T05:21:06.691Z,37.70
2023-04-30T05:23:33.902Z,34.75
2023-04-30T05:26:01.243Z,40.05
2023-04-30T05:28:28.390Z,35.10
2023-04-30T05:30:55.767Z,35.15
2023-04-30T05:33:22.995Z,39.97
2023-04-30T05:35:50.365Z,50.33
2023-04-30T05:38:17.538Z,62.40
2023-04-30T05:40:44.715Z,73.40
2023-04-30T05:43:11.953Z,72.45
2023-04-30T05:45:41.633Z,75.60
2023-04-30T05:48:08.810Z,84.60
2023-04-30T05:50:36.446Z,93.78
2023-04-30T05:53:03.655Z,94.18
2023-04-30T05:55:31.247Z,109.22
2023-04-30T05:57:58.424Z,103.72
2023-04-30T06:00:25.740Z,121.50
2023-04-30T06:02:53.620Z,112.82
2023-04-30T06:05:20.962Z,125.40
2023-04-30T06:07:48.206Z,124.18
2023-04-30T06:10:15.660Z,138.13
2023-04-30T06:12:42.828Z,132.15
2023-04-30T06:15:10.510Z,132.07
2023-04-30T06:17:37.848Z,142.50
2023-04-30T06:20:07.156Z,139.77
2023-04-30T06:22:34.603Z,141.30
2023-04-30T06:25:01.772Z,132.68
2023-04-30T06:27:29.397Z,132.43
2023-04-30T06:29:56.694Z,122.60
2023-04-30T06:32:24.027Z,116.28
2023-04-30T06:34:51.181Z,120.45
2023-04-30T06:37:18.821Z,111.60
2023-04-30T06:39:45.954Z,113.03
2023-04-30T06:42:13.240Z,103.45
2023-04-30T06:44:40.408Z,96.55
2023-04-30T06:47:07.546Z,92.63
2023-04-30T06:49:34.754Z,87.97
2023-04-30T06:52:01.900Z,89.63
2023-04-30T06:54:29.214Z,84.70
2023-04-30T06:56:56.856Z,86.10
2023-04-30T06:59:23.997Z,84.75
2023-04-30T07:01:51.287Z,79.50
2023-04-30T07:04:19.564Z,68.22
2023-04-30T07:09:15.534Z,54.30
2023-04-30T07:11:42.771Z,54.63
2023-04-30T07:14:09.928Z,49.22
2023-04-30T07:16:37.049Z,48.47
2023-04-30T07:19:04.176Z,44.10
2023-04-30T07:21:32.634Z,47.88
2023-04-30T07:23:59.885Z,45.85
2023-04-30T07:26:27.246Z,45.10
2023-04-30T07:28:54.425Z,45.38
2023-04-30T07:31:25.866Z,42.03
2023-04-30T07:33:55.276Z,40.33
2023-04-30T07:36:22.985Z,51.65
2023-04-30T07:38:50.206Z,43.70
2023-04-30T07:41:17.314Z,41.90
2023-04-30T07:43:44.583Z,38.80
2023-04-30T07:46:11.858Z,42.35
2023-04-30T07:48:39.462Z,47.80
2023-04-30T07:51:06.784Z,48.13
2023-04-30T07:53:34.092Z,45.97
2023-04-30T07:56:01.292Z,41.13
2023-04-30T07:58:28.527Z,39.60
2023-04-30T08:00:56.019Z,39.00
2023-04-30T08:03:23.261Z,38.47
2023-04-30T08:05:50.791Z,35.88
2023-04-30T08:08:18.025Z,38.30
2023-04-30T08:10:45.194Z,37.47
2023-04-30T08:13:16.123Z,33.25
2023-04-30T08:15:43.325Z,32.88
2023-04-30T08:18:10.609Z,30.50
2023-04-30T08:20:38.644Z,36.72
2023-04-30T08:23:06.035Z,46.88
2023-04-30T08:25:33.326Z,35.83
2023-04-30T08:28:00.667Z,32.53
2023-04-30T08:30:27.843Z,31.63
2023-04-30T08:32:57.515Z,30.42
2023-04-30T08:35:25.240Z,33.38
2023-04-30T08:37:53.402Z,30.75
2023-04-30T08:43:09.071Z,28.15
2023-04-30T08:45:37.090Z,28.15
2023-04-30T08:48:05.892Z,27.33
2023-04-30T08:50:33.124Z,25.35
2023-04-30T08:53:01.864Z,25.52
2023-04-30T08:55:29.704Z,28.20
2023-04-30T08:57:56.852Z,28.27
2023-04-30T09:00:24.070Z,28.35
2023-04-30T09:02:51.283Z,24.15
2023-04-30T09:05:18.520Z,28.15
2023-04-30T09:08:02.394Z,28.05
2023-04-30T09:10:34.051Z,29.00
2023-04-30T09:13:09.367Z,32.40
2023-04-30T09:15:41.638Z,28.88
2023-04-30T09:18:18.263Z,30.25
2023-04-30T09:21:02.006Z,28.42
2023-04-30T09:23:30.441Z,25.70
2023-04-30T09:25:57.908Z,27.67
2023-04-30T09:28:26.595Z,28.48
2023-04-30T09:30:56.768Z,29.95
2023-04-30T09:33:24.073Z,27.83
2023-04-30T09:35:51.242Z,26.30
2023-04-30T09:38:32.992Z,26.15
2023-04-30T09:41:02.071Z,26.83
2023-04-30T09:43:44.974Z,25.83
2023-04-30T09:46:12.253Z,21.75
2023-04-30T09:48:41.972Z,21.35
2023-04-30T09:51:09.137Z,22.85
2023-04-30T09:53:41.187Z,23.30
2023-04-30T09:56:09.234Z,23.70
2023-04-30T09:58:38.890Z,23.35
2023-04-30T10:01:08.998Z,21.27
2023-04-30T10:03:36.999Z,22.50
2023-04-30T10:06:04.462Z,17.35
2023-04-30T10:08:47.238Z,16.75
2023-04-30T10:11:21.455Z,16.13
2023-04-30T10:14:04.370Z,17.25
2023-04-30T10:16:51.569Z,18.05
2023-04-30T10:19:34.340Z,17.85
2023-04-30T10:22:02.486Z,16.33
2023-04-30T10:26:58.546Z,17.98
2023-04-30T10:31:54.476Z,15.10
2023-04-30T10:34:55.301Z,15.25
2023-04-30T10:37:44.173Z,15.35
2023-04-30T10:40:12.093Z,16.58
2023-04-30T10:42:50.046Z,15.10
2023-04-30T10:45:17.529Z,16.92
2023-04-30T10:47:48.393Z,16.73
2023-04-30T10:50:15.663Z,15.60
2023-04-30T10:52:44.583Z,15.35
2023-04-30T10:55:17.318Z,14.77
2023-04-30T10:57:46.576Z,16.10
2023-04-30T11:00:14.476Z,16.70
2023-04-30T11:02:48.681Z,14.25
2023-04-30T11:05:20.527Z,14.43
2023-04-30T11:07:50.719Z,16.02
2023-04-30T11:10:28.354Z,20.30
2023-04-30T11:12:56.219Z,16.33
2023-04-30T11:15:45.864Z,15.73
2023-04-30T11:18:14.287Z,14.65
2023-04-30T11:20:42.235Z,13.65
2023-04-30T11:23:28.176Z,15.77
2023-04-30T11:26:04.816Z,15.18
2023-04-30T11:28:35.758Z,17.58
2023-04-30T11:31:04.173Z,16.98
2023-04-30T11:33:33.360Z,15.20
2023-04-30T11:36:02.386Z,15.80
2023-04-30T11:38:35.979Z,14.75
2023-04-30T11:41:12.696Z,12.70
2023-04-30T11:43:39.809Z,15.27
2023-04-30T11:46:17.503Z,16.30
2023-04-30T11:48:46.732Z,13.20
2023-04-30T11:51:20.645Z,16.98
2023-04-30T11:53:50.718Z,13.45
2023-04-30T11:56:24.228Z,14.20
2023-04-30T11:58:56.066Z,15.32
2023-04-30T12:01:30.319Z,15.32
2023-04-30T12:06:28.783Z,14.70
2023-04-30T12:09:00.017Z,13.18
2023-04-30T12:11:30.256Z,14.02
2023-04-30T12:14:07.639Z,17.60
2023-04-30T12:16:46.099Z,14.50
2023-04-30T12:19:13.927Z,13.88
2023-04-30T12:21:49.672Z,13.43
2023-04-30T12:24:19.424Z,14.07
2023-04-30T12:26:47.940Z,14.95
2023-04-30T12:29:18.591Z,13.25
2023-04-30T12:31:50.820Z,13.82
2023-04-30T12:34:18.874Z,13.88
2023-04-30T12:36:46.046Z,12.57
2023-04-30T12:39:16.100Z,13.63
2023-04-30T12:41:49.320Z,15.38
2023-04-30T12:44:27.657Z,13.05
2023-04-30T12:47:00.888Z,13.57
2023-04-30T12:49:33.555Z,14.68
2023-04-30T12:52:12.391Z,12.75
2023-04-30T12:54:40.578Z,13.75
2023-04-30T12:57:13.061Z,11.20
2023-04-30T13:00:00.896Z,13.27
2023-04-30T13:02:32.000Z,14.38
2023-04-30T13:04:59.899Z,14.35
2023-04-30T13:07:27.240Z,11.65
2023-04-30T13:09:54.549Z,11.38
2023-04-30T13:12:21.955Z,11.23
2023-04-30T13:14:49.290Z,10.95
2023-04-30T13:17:18.280Z,11.18
2023-04-30T13:19:45.463Z,11.77
2023-04-30T13:22:12.730Z,13.32
2023-04-30T13:24:40.303Z,10.98
2023-04-30T13:27:07.496Z,10.50
2023-04-30T13:29:34.662Z,10.90
2023-04-30T13:32:02.375Z,12.00
2023-04-30T13:34:29.568Z,10.43
2023-04-30T13:36:56.742Z,11.70
2023-04-30T13:39:23.934Z,11.85
2023-04-30T13:41:51.120Z,12.20
2023-04-30T13:44:18.605Z,10.55
2023-04-30T13:46:46.024Z,12.52
2023-04-30T13:49:13.230Z,11.65
2023-04-30T13:51:40.429Z,12.15
2023-04-30T13:54:07.560Z,12.63
2023-04-30T13:56:34.793Z,11.07
2023-04-30T13:59:03.025Z,10.32
2023-04-30T14:04:02.354Z,9.52
2023-04-30T14:06:32.095Z,10.40
2023-04-30T14:08:59.411Z,10.57
2023-04-30T14:11:27.497Z,11.30
2023-04-30T14:16:22.624Z,11.95
2023-04-30T14:18:49.867Z,9.38
2023-04-30T14:21:17.144Z,11.10
2023-04-30T14:23:46.549Z,9.93
2023-04-30T14:26:14.578Z,10.55
2023-04-30T14:28:41.767Z,10.55
2023-04-30T14:31:10.342Z,10.50
2023-04-30T14:33:37.567Z,9.48
2023-04-30T14:36:05.852Z,11.80
2023-04-30T14:38:33.003Z,9.55
2023-04-30T14:41:00.272Z,11.02
2023-04-30T14:43:27.449Z,9.98
2023-04-30T14:45:54.673Z,8.20
2023-04-30T14:48:21.973Z,8.63
2023-04-30T14:50:49.263Z,7.63
2023-04-30T14:53:16.436Z,6.10
2023-04-30T14:55:43.550Z,6.65
2023-04-30T14:58:10.711Z,6.53
2023-04-30T15:00:37.858Z,7.45
2023-04-30T15:03:05.156Z,7.43
2023-04-30T15:05:32.760Z,8.75
2023-04-30T15:07:59.891Z,5.90
2023-04-30T15:10:27.237Z,5.75
2023-04-30T15:12:54.392Z,5.97
2023-04-30T15:15:24.974Z,5.10
2023-04-30T15:17:52.746Z,4.63
2023-04-30T15:20:19.949Z,6.18
2023-04-30T15:22:47.087Z,8.45
2023-04-30T15:25:14.385Z,5.93
2023-04-30T15:27:41.656Z,8.07
2023-04-30T15:30:10.317Z,5.57
2023-04-30T15:32:37.672Z,5.07
2023-04-30T15:35:06.700Z,5.93
2023-04-30T15:37:34.593Z,4.38
2023-04-30T15:40:01.794Z,5.43
2023-04-30T15:42:29.514Z,5.82
2023-04-30T15:44:56.713Z,5.13
2023-04-30T15:47:25.484Z,4.60
2023-04-30T15:49:52.793Z,4.88
2023-04-30T15:52:20.544Z,4.07
2023-04-30T15:54:47.720Z,4.53
2023-04-30T15:57:15.131Z,5.53
2023-04-30T15:59:42.321Z,5.20
2023-04-30T16:02:09.594Z,7.30
2023-04-30T16:04:36.736Z,5.50
2023-04-30T16:07:04.678Z,4.53
2023-04-30T16:09:32.582Z,4.75
2023-04-30T16:11:59.965Z,4.38
2023-04-30T16:14:27.152Z,5.18
2023-04-30T16:16:54.787Z,6.07
2023-04-30T16:19:21.972Z,4.60
2023-04-30T16:21:49.358Z,5.10
2023-04-30T16:24:16.612Z,5.88
2023-04-30T16:26:43.860Z,4.45
2023-04-30T16:29:11.099Z,4.18
2023-04-30T16:31:38.410Z,5.32
2023-04-30T16:34:05.978Z,5.43
2023-04-30T16:36:33.121Z,5.22
2023-04-30T16:39:00.302Z,5.28
2023-04-30T16:41:27.417Z,4.90
2023-04-30T16:43:54.598Z,4.93
2023-04-30T16:46:21.823Z,5.50
2023-04-30T16:48:49.451Z,4.35
2023-04-30T16:51:16.626Z,4.65
2023-04-30T16:53:44.043Z,4.60
2023-04-30T16:56:11.143Z,4.50
2023-04-30T16:58:38.689Z,4.57
2023-04-30T17:01:05.980Z,4.38
2023-04-30T17:03:34.768Z,4.78
2023-04-30T17:06:02.228Z,5.28
2023-04-30T17:08:29.444Z,4.78
2023-04-30T17:10:56.719Z,7.47
2023-04-30T17:13:23.936Z,4.85
2023-04-30T17:15:51.230Z,4.85
2023-04-30T17:18:18.412Z,6.63
2023-04-30T17:20:46.517Z,5.03
2023-04-30T17:23:13.687Z,5.65
2023-04-30T17:25:40.854Z,4.45
2023-04-30T17:28:07.995Z,6.05
2023-04-30T17:30:36.050Z,5.55
2023-04-30T17:33:04.399Z,4.88
2023-04-30T17:35:31.654Z,5.70
2023-04-30T17:37:59.397Z,5.53
2023-04-30T17:40:26.817Z,6.70
2023-04-30T17:42:54.183Z,6.30
2023-04-30T17:45:21.439Z,4.80
2023-04-30T17:47:48.649Z,5.22
2023-04-30T17:50:16.186Z,5.20
2023-04-30T17:52:43.389Z,4.65
2023-04-30T17:55:11.304Z,4.95
2023-04-30T17:57:38.506Z,6.35
2023-04-30T18:00:09.153Z,5.13
2023-04-30T18:02:42.086Z,5.18
2023-04-30T18:05:11.576Z,4.82
2023-04-30T18:07:38.780Z,5.93
2023-04-30T18:10:07.322Z,6.05
2023-04-30T18:12:35.844Z,5.60
2023-04-30T18:15:03.214Z,6.65
2023-04-30T18:17:33.527Z,4.80
2023-04-30T18:20:02.385Z,4.88
2023-04-30T18:22:29.604Z,6.45
2023-04-30T18:24:57.016Z,7.82
2023-04-30T18:27:24.184Z,6.25
2023-04-30T18:29:52.579Z,9.05
2023-04-30T18:32:19.989Z,5.05
2023-04-30T18:34:47.168Z,5.95
2023-04-30T18:37:14.312Z,6.35
2023-04-30T18:39:41.540Z,6.63
2023-04-30T18:42:09.421Z,6.60
2023-04-30T18:44:38.855Z,5.60
2023-04-30T18:47:06.812Z,6.10
2023-04-30T18:49:33.974Z,5.47
2023-04-30T18:52:01.262Z,6.22
2023-04-30T18:54:28.500Z,7.15
2023-04-30T18:56:55.671Z,6.30
2023-04-30T18:59:22.869Z,5.55
2023-04-30T19:01:50.089Z,6.72
2023-04-30T19:04:17.399Z,6.38
2023-04-30T19:06:45.929Z,5.85
2023-04-30T19:09:14.976Z,6.50
2023-04-30T19:11:42.283Z,7.00
2023-04-30T19:14:09.492Z,5.40
2023-04-30T19:16:36.895Z,5.40
2023-04-30T19:19:04.194Z,6.13
2023-04-30T19:21:32.558Z,7.50
2023-04-30T19:26:27.850Z,5.70
2023-04-30T19:28:55.399Z,6.28
2023-04-30T19:31:22.778Z,6.32
2023-04-30T19:33:50.220Z,5.85
2023-04-30T19:36:17.588Z,5.72
2023-04-30T19:38:44.841Z,5.68
2023-04-30T19:41:11.969Z,5.97
2023-04-30T19:43:39.380Z,5.40
2023-04-30T19:46:07.355Z,5.55
2023-04-30T19:48:34.640Z,6.55
2023-04-30T19:51:05.036Z,5.88
2023-04-30T19:53:32.309Z,6.75
2023-04-30T19:55:59.824Z,5.50
2023-04-30T19:58:26.983Z,5.75
2023-04-30T20:00:55.776Z,7.07
2023-04-30T20:03:25.124Z,5.63
2023-04-30T20:05:52.468Z,6.80
2023-04-30T20:08:19.729Z,8.55
2023-04-30T20:10:47.905Z,6.05
2023-04-30T20:13:15.850Z,6.55
2023-04-30T20:15:43.953Z,7.07
2023-04-30T20:18:12.430Z,6.43
2023-04-30T20:20:39.611Z,6.22
2023-04-30T20:23:17.807Z,6.65
2023-04-30T20:25:46.577Z,6.43
2023-04-30T20:28:16.529Z,7.35
2023-04-30T20:30:44.096Z,7.50
2023-04-30T20:33:13.177Z,6.88
2023-04-30T20:35:47.663Z,7.40
2023-04-30T20:38:18.006Z,6.35
2023-04-30T20:40:47.060Z,7.50
2023-04-30T20:43:14.622Z,7.53
2023-04-30T20:45:44.803Z,6.32
2023-04-30T20:48:12.157Z,6.15
2023-04-30T20:50:39.972Z,6.25
2023-04-30T20:53:08.391Z,7.72
2023-04-30T20:55:37.485Z,6.25
2023-04-30T20:58:04.856Z,6.75
2023-04-30T21:00:31.971Z,6.38
2023-04-30T21:02:59.255Z,6.95
2023-04-30T21:05:28.457Z,6.93
2023-04-30T21:08:00.793Z,6.50
2023-04-30T21:10:35.208Z,7.05
2023-04-30T21:13:05.300Z,7.57
2023-04-30T21:15:39.099Z,6.88
2023-04-30T21:18:06.288Z,6.25
2023-04-30T21:20:33.459Z,8.25
2023-04-30T21:23:02.236Z,7.03
2023-04-30T21:25:29.433Z,6.32
2023-04-30T21:27:56.966Z,6.15
2023-04-30T21:30:26.309Z,6.97
2023-04-30T21:32:58.904Z,6.30
2023-04-30T21:35:29.839Z,7.75
2023-04-30T21:37:59.344Z,6.38
2023-04-30T21:40:26.530Z,6.80
2023-04-30T21:42:53.744Z,7.57
2023-04-30T21:45:21.016Z,6.15
2023-04-30T21:47:48.792Z,6.10
2023-04-30T21:50:16.437Z,6.22
2023-04-30T21:52:43.853Z,6.72
2023-04-30T21:55:11.091Z,5.85
2023-04-30T21:57:38.222Z,7.13
2023-04-30T22:00:07.005Z,6.10
2023-04-30T22:02:35.156Z,6.20
2023-04-30T22:05:03.065Z,7.13
2023-04-30T22:07:30.517Z,9.05
2023-04-30T22:09:58.308Z,7.72
2023-04-30T22:12:25.693Z,6.70
2023-04-30T22:14:54.728Z,6.30
2023-04-30T22:17:22.042Z,6.13
2023-04-30T22:19:49.191Z,6.93
2023-04-30T22:22:16.568Z,7.95
2023-04-30T22:24:43.738Z,6.65
2023-04-30T22:27:11.036Z,6.95
2023-04-30T22:29:38.402Z,7.30
2023-04-30T22:32:07.071Z,7.25
2023-04-30T22:34:40.860Z,7.55
2023-04-30T22:37:12.176Z,7.65
2023-04-30T22:39:39.450Z,7.90
2023-04-30T22:42:08.403Z,7.53
2023-04-30T22:44:36.741Z,6.05
2023-04-30T22:47:04.214Z,7.60
2023-04-30T22:49:32.495Z,6.47
2023-04-30T22:54:27.498Z,7.55
2023-04-30T22:56:54.649Z,8.23
2023-04-30T22:59:21.990Z,7.57
2023-04-30T23:01:49.277Z,6.75
2023-04-30T23:04:16.522Z,7.18
2023-04-30T23:06:43.897Z,6.43
2023-04-30T23:09:12.713Z,8.27
2023-04-30T23:11:39.899Z,7.30
2023-04-30T23:14:07.040Z,6.82
2023-04-30T23:16:34.199Z,7.05
2023-04-30T23:19:01.579Z,6.85
2023-04-30T23:21:28.736Z,7.20
2023-04-30T23:23:55.893Z,8.70
2023-04-30T23:26:23.175Z,8.45
2023-04-30T23:28:51.158Z,9.60
2023-04-30T23:31:18.483Z,7.88
2023-04-30T23:33:45.616Z,7.18
2023-04-30T23:36:12.757Z,7.03
2023-04-30T23:38:40.102Z,7.07
2023-04-30T23:41:07.643Z,8.95
2023-04-30T23:43:34.897Z,7.13
2023-04-30T23:46:02.115Z,7.90
2023-04-30T23:48:30.359Z,6.72
2023-04-30T23:51:05.565Z,8.63
2023-04-30T23:53:32.727Z,6.80
2023-04-30T23:56:00.227Z,6.88
2023-04-30T23:58:31.988Z,7.20
